createdAt,value
2018-11-22T00:01:13.510Z,52.73
2018-11-22T00:03:40.946Z,51.30
2018-11-22T00:06:08.365Z,54.47
2018-11-22T00:08:35.802Z,56.63
2018-11-22T00:11:03.224Z,54.27
2018-11-22T00:13:30.654Z,53.70
2018-11-22T00:15:58.082Z,57.80
2018-11-22T00:18:25.851Z,52.50
2018-11-22T00:20:53.256Z,51.03
2018-11-22T00:23:20.692Z,53.43
2018-11-22T00:25:48.139Z,48.07
2018-11-22T00:28:15.574Z,57.37
2018-11-22T00:30:43.009Z,60.43
2018-11-22T00:33:10.414Z,55.80
2018-11-22T00:35:37.861Z,60.33
2018-11-22T00:38:05.269Z,52.30
2018-11-22T00:40:32.705Z,58.53
2018-11-22T00:43:00.101Z,49.37
2018-11-22T00:45:27.555Z,54.43
2018-11-22T00:47:54.978Z,56.23
2018-11-22T00:50:22.396Z,55.47
2018-11-22T00:52:49.856Z,55.50
2018-11-22T00:55:17.310Z,56.97
2018-11-22T00:57:44.738Z,54.47
2018-11-22T01:00:12.200Z,55.37
2018-11-22T01:02:39.631Z,56.10
2018-11-22T01:05:07.050Z,58.30
2018-11-22T01:07:34.490Z,50.87
2018-11-22T01:10:01.911Z,55.47
2018-11-22T01:12:29.368Z,60.97
2018-11-22T01:14:56.774Z,55.80
2018-11-22T01:17:24.183Z,53.87
2018-11-22T01:19:51.614Z,56.73
2018-11-22T01:22:19.082Z,57.20
2018-11-22T01:24:46.484Z,58.30
2018-11-22T01:27:13.904Z,57.60
2018-11-22T01:29:41.342Z,58.13
2018-11-22T01:32:08.748Z,59.47
2018-11-22T01:34:36.192Z,57.23
2018-11-22T01:37:03.593Z,58.27
2018-11-22T01:39:31.017Z,55.37
2018-11-22T01:41:58.439Z,58.03
2018-11-22T01:44:25.871Z,55.40
2018-11-22T01:46:53.286Z,59.27
2018-11-22T01:49:20.746Z,56.00
2018-11-22T01:51:48.142Z,57.87
2018-11-22T01:54:15.580Z,56.50
2018-11-22T01:56:43.003Z,59.77
2018-11-22T01:59:10.437Z,59.27
2018-11-22T02:01:37.875Z,53.13
2018-11-22T02:04:05.285Z,61.03
2018-11-22T02:06:32.684Z,58.43
2018-11-22T02:09:00.117Z,62.83
2018-11-22T02:11:27.535Z,58.80
2018-11-22T02:13:55.027Z,56.50
2018-11-22T02:16:22.402Z,58.57
2018-11-22T02:18:49.834Z,58.37
2018-11-22T02:21:17.254Z,57.93
2018-11-22T02:23:44.722Z,52.80
2018-11-22T02:26:12.104Z,59.83
2018-11-22T02:28:39.533Z,58.80
2018-11-22T02:31:06.940Z,64.13
2018-11-22T02:33:34.357Z,61.37
2018-11-22T02:36:01.771Z,63.07
2018-11-22T02:38:29.201Z,60.60
2018-11-22T02:40:56.604Z,65.77
2018-11-22T02:43:24.051Z,58.00
2018-11-22T02:45:51.491Z,64.83
2018-11-22T02:48:18.938Z,61.57
2018-11-22T02:50:46.359Z,60.33
2018-11-22T02:53:13.779Z,64.83
2018-11-22T02:55:41.196Z,60.37
2018-11-22T02:58:08.645Z,57.37
2018-11-22T03:00:36.066Z,64.83
2018-11-22T03:03:03.470Z,63.63
2018-11-22T03:05:30.907Z,60.70
2018-11-22T03:07:58.327Z,56.70
2018-11-22T03:10:25.863Z,61.97
2018-11-22T03:12:53.281Z,61.43
2018-11-22T03:15:20.688Z,56.27
2018-11-22T03:17:48.119Z,58.73
2018-11-22T03:20:15.535Z,64.60
2018-11-22T03:22:42.968Z,64.67
2018-11-22T03:25:10.372Z,62.33
2018-11-22T03:27:37.784Z,62.00
2018-11-22T03:30:05.247Z,62.40
2018-11-22T03:32:32.672Z,62.43
2018-11-22T03:35:00.109Z,60.73
2018-11-22T03:37:27.529Z,69.63
2018-11-22T03:39:54.944Z,54.87
2018-11-22T03:42:22.401Z,59.20
2018-11-22T03:44:49.789Z,72.30
2018-11-22T03:47:17.211Z,66.50
2018-11-22T03:49:44.643Z,64.17
2018-11-22T03:52:12.047Z,61.07
2018-11-22T03:54:39.442Z,64.57
2018-11-22T03:57:06.880Z,60.97
2018-11-22T03:59:34.352Z,59.63
2018-11-22T04:02:01.790Z,61.53
2018-11-22T04:04:29.247Z,66.27
2018-11-22T04:06:56.653Z,61.33
2018-11-22T04:09:24.061Z,61.10
2018-11-22T04:11:51.496Z,64.90
2018-11-22T04:14:18.895Z,65.50
2018-11-22T04:16:46.317Z,61.27
2018-11-22T04:19:13.720Z,64.07
2018-11-22T04:21:41.161Z,63.00
2018-11-22T04:24:08.572Z,60.87
2018-11-22T04:26:35.991Z,61.47
2018-11-22T04:29:03.395Z,65.03
2018-11-22T04:31:30.856Z,60.20
2018-11-22T04:33:58.268Z,67.90
2018-11-22T04:36:25.677Z,66.13
2018-11-22T04:38:53.112Z,61.97
2018-11-22T04:41:20.522Z,66.57
2018-11-22T04:43:47.944Z,61.60
2018-11-22T04:46:15.356Z,64.63
2018-11-22T04:48:42.785Z,62.37
2018-11-22T04:51:10.192Z,66.03
2018-11-22T04:53:37.619Z,64.03
2018-11-22T04:56:05.018Z,65.27
2018-11-22T04:58:32.446Z,67.30
2018-11-22T05:00:59.881Z,73.80
2018-11-22T05:03:27.285Z,67.33
2018-11-22T05:05:54.692Z,68.57
2018-11-22T05:08:22.133Z,66.47
2018-11-22T05:10:49.577Z,61.50
2018-11-22T05:13:16.978Z,64.10
2018-11-22T05:15:44.395Z,67.03
2018-11-22T05:18:11.829Z,64.93
2018-11-22T05:20:39.253Z,64.47
2018-11-22T05:23:06.659Z,64.13
2018-11-22T05:25:34.093Z,65.20
2018-11-22T05:28:01.524Z,63.90
2018-11-22T05:30:28.934Z,63.43
2018-11-22T05:32:56.363Z,59.97
2018-11-22T05:35:23.776Z,62.97
2018-11-22T05:37:51.218Z,65.80
2018-11-22T05:40:18.628Z,60.40
2018-11-22T05:42:46.062Z,61.03
2018-11-22T05:45:13.520Z,63.23
2018-11-22T05:47:40.923Z,68.13
2018-11-22T05:50:08.384Z,57.80
2018-11-22T05:52:35.859Z,66.77
2018-11-22T05:55:03.280Z,60.63
2018-11-22T05:57:30.693Z,65.10
2018-11-22T05:59:58.487Z,64.83
2018-11-22T06:02:25.909Z,71.07
2018-11-22T06:04:53.338Z,63.27
2018-11-22T06:07:20.783Z,68.47
2018-11-22T06:09:48.182Z,55.87
2018-11-22T06:12:15.608Z,55.00
2018-11-22T06:14:43.040Z,57.63
2018-11-22T06:17:10.542Z,57.87
2018-11-22T06:19:37.976Z,62.43
2018-11-22T06:22:05.439Z,60.63
2018-11-22T06:24:32.862Z,70.43
2018-11-22T06:27:00.282Z,61.30
2018-11-22T06:29:27.739Z,58.13
2018-11-22T06:31:55.177Z,58.63
2018-11-22T06:34:22.580Z,60.73
2018-11-22T06:36:50.022Z,56.70
2018-11-22T06:39:17.445Z,62.53
2018-11-22T06:41:44.875Z,56.87
2018-11-22T06:44:12.273Z,70.17
2018-11-22T06:46:39.685Z,63.43
2018-11-22T06:49:07.084Z,63.67
2018-11-22T06:51:34.521Z,64.70
2018-11-22T06:54:01.934Z,69.37
2018-11-22T06:56:29.356Z,64.77
2018-11-22T06:58:56.792Z,61.77
2018-11-22T07:01:24.215Z,71.40
2018-11-22T07:03:51.647Z,68.10
2018-11-22T07:06:19.092Z,62.80
2018-11-22T07:08:46.514Z,84.37
2018-11-22T07:11:13.963Z,61.63
2018-11-22T07:13:41.368Z,60.37
2018-11-22T07:16:08.779Z,69.23
2018-11-22T07:18:36.241Z,67.17
2018-11-22T07:21:03.657Z,68.07
2018-11-22T07:23:31.096Z,73.73
2018-11-22T07:25:58.519Z,73.80
2018-11-22T07:28:25.937Z,65.33
2018-11-22T07:30:53.361Z,65.33
2018-11-22T07:33:20.792Z,63.90
2018-11-22T07:35:48.197Z,69.00
2018-11-22T07:38:15.666Z,63.50
2018-11-22T07:40:43.079Z,66.63
2018-11-22T07:43:10.521Z,66.23
2018-11-22T07:45:37.955Z,63.97
2018-11-22T07:48:05.385Z,69.30
2018-11-22T07:50:32.807Z,69.33
2018-11-22T07:53:00.229Z,63.77
2018-11-22T07:55:27.653Z,59.57
2018-11-22T07:57:55.059Z,64.20
2018-11-22T08:00:22.490Z,75.87
2018-11-22T08:02:49.930Z,66.43
2018-11-22T08:05:17.338Z,74.03
2018-11-22T08:07:44.754Z,66.60
2018-11-22T08:10:12.175Z,63.53
2018-11-22T08:12:39.677Z,71.67
2018-11-22T08:15:07.041Z,66.37
2018-11-22T08:17:34.449Z,64.97
2018-11-22T08:20:01.925Z,64.53
2018-11-22T08:22:29.357Z,63.80
2018-11-22T08:24:56.761Z,69.97
2018-11-22T08:27:24.191Z,67.83
2018-11-22T08:29:51.591Z,67.93
2018-11-22T08:32:19.039Z,63.70
2018-11-22T08:34:46.434Z,72.97
2018-11-22T08:37:13.862Z,72.60
2018-11-22T08:39:41.270Z,65.90
2018-11-22T08:42:08.812Z,64.63
2018-11-22T08:44:36.208Z,64.10
2018-11-22T08:47:03.647Z,62.37
2018-11-22T08:49:33.124Z,66.47
2018-11-22T08:52:00.564Z,61.50
2018-11-22T08:54:27.962Z,59.37
2018-11-22T08:56:55.389Z,63.87
2018-11-22T08:59:22.809Z,63.43
2018-11-22T09:01:50.250Z,65.70
2018-11-22T09:04:37.272Z,68.67
2018-11-22T09:07:04.703Z,65.77
2018-11-22T09:09:32.109Z,78.43
2018-11-22T09:11:59.547Z,73.17
2018-11-22T09:14:26.957Z,74.93
2018-11-22T09:16:54.386Z,63.87
2018-11-22T09:19:21.817Z,69.20
2018-11-22T09:21:49.218Z,61.27
2018-11-22T09:24:17.489Z,73.10
2018-11-22T09:26:44.046Z,66.37
2018-11-22T09:29:11.476Z,76.77
2018-11-22T09:31:38.876Z,72.40
2018-11-22T09:34:06.304Z,68.77
2018-11-22T09:36:33.744Z,62.50
2018-11-22T09:39:01.156Z,70.70
2018-11-22T09:41:28.556Z,69.20
2018-11-22T09:43:55.971Z,65.87
2018-11-22T09:46:23.378Z,70.33
2018-11-22T09:48:50.863Z,71.33
2018-11-22T09:51:18.261Z,73.30
2018-11-22T09:53:45.683Z,70.70
2018-11-22T09:56:13.135Z,60.30
2018-11-22T09:58:40.543Z,69.17
2018-11-22T10:01:07.976Z,74.07
2018-11-22T10:03:35.388Z,65.90
2018-11-22T10:06:02.847Z,64.03
2018-11-22T10:08:30.312Z,62.27
2018-11-22T10:10:57.680Z,68.27
2018-11-22T10:13:25.105Z,66.67
2018-11-22T10:15:52.527Z,63.33
2018-11-22T10:18:19.952Z,59.07
2018-11-22T10:20:47.342Z,61.10
2018-11-22T10:23:14.760Z,61.50
2018-11-22T10:25:42.164Z,62.30
2018-11-22T10:28:09.584Z,64.23
2018-11-22T10:30:36.997Z,58.83
2018-11-22T10:33:04.419Z,63.27
2018-11-22T10:35:31.857Z,63.97
2018-11-22T10:37:59.472Z,60.77
2018-11-22T10:40:26.707Z,59.77
2018-11-22T10:42:54.112Z,58.87
2018-11-22T10:45:21.535Z,56.30
2018-11-22T10:47:48.949Z,63.30
2018-11-22T10:50:16.378Z,64.37
2018-11-22T10:52:43.854Z,60.80
2018-11-22T10:55:11.275Z,60.00
2018-11-22T10:57:38.705Z,62.23
2018-11-22T11:00:06.162Z,58.37
2018-11-22T11:02:52.194Z,60.97
2018-11-22T11:05:19.619Z,59.10
2018-11-22T11:07:47.055Z,60.87
2018-11-22T11:10:14.472Z,56.67
2018-11-22T11:12:41.881Z,59.43
2018-11-22T11:15:09.341Z,54.17
2018-11-22T11:17:36.740Z,57.27
2018-11-22T11:20:04.267Z,58.90
2018-11-22T11:22:31.625Z,62.20
2018-11-22T11:24:59.057Z,58.73
2018-11-22T11:27:26.487Z,54.23
2018-11-22T11:29:53.920Z,54.90
2018-11-22T11:32:21.352Z,56.73
2018-11-22T11:34:48.802Z,57.00
2018-11-22T11:37:16.268Z,62.77
2018-11-22T11:39:43.701Z,65.83
2018-11-22T11:42:11.156Z,63.40
2018-11-22T11:44:38.561Z,60.43
2018-11-22T11:47:05.997Z,60.70
2018-11-22T11:49:33.433Z,58.03
2018-11-22T11:52:00.873Z,56.47
2018-11-22T11:54:28.316Z,59.33
2018-11-22T11:56:55.729Z,58.57
2018-11-22T11:59:23.154Z,55.47
2018-11-22T12:01:50.575Z,58.57
2018-11-22T12:04:18.008Z,55.03
2018-11-22T12:06:45.438Z,56.57
2018-11-22T12:09:12.876Z,61.57
2018-11-22T12:11:40.304Z,58.20
2018-11-22T12:14:07.717Z,56.07
2018-11-22T12:16:35.129Z,54.73
2018-11-22T12:19:02.569Z,57.37
2018-11-22T12:21:29.992Z,54.10
2018-11-22T12:23:57.386Z,56.27
2018-11-22T12:26:24.809Z,57.03
2018-11-22T12:28:52.220Z,49.73
2018-11-22T12:31:19.633Z,54.53
2018-11-22T12:33:47.065Z,57.00
2018-11-22T12:36:14.550Z,52.80
2018-11-22T12:38:41.943Z,57.87
2018-11-22T12:41:09.338Z,56.90
2018-11-22T12:43:36.789Z,58.97
2018-11-22T12:46:04.211Z,55.93
2018-11-22T12:48:31.675Z,64.50
2018-11-22T12:50:59.111Z,60.50
2018-11-22T12:53:26.548Z,57.30
2018-11-22T12:55:53.983Z,60.87
2018-11-22T12:58:21.380Z,57.20
2018-11-22T13:00:48.873Z,56.80
2018-11-22T13:03:16.294Z,61.03
2018-11-22T13:05:43.726Z,62.30
2018-11-22T13:08:11.138Z,61.50
2018-11-22T13:10:38.542Z,64.57
2018-11-22T13:13:06.001Z,56.37
2018-11-22T13:15:33.423Z,63.03
2018-11-22T13:18:00.856Z,57.57
2018-11-22T13:20:28.272Z,60.40
2018-11-22T13:22:55.703Z,63.53
2018-11-22T13:25:23.148Z,53.50
2018-11-22T13:27:50.541Z,59.17
2018-11-22T13:30:17.979Z,65.43
2018-11-22T13:32:46.006Z,63.00
2018-11-22T13:35:13.426Z,63.03
2018-11-22T13:37:40.859Z,64.40
2018-11-22T13:40:08.288Z,67.23
2018-11-22T13:42:35.732Z,65.47
2018-11-22T13:45:03.131Z,68.37
2018-11-22T13:47:30.585Z,71.30
2018-11-22T13:49:57.977Z,71.93
2018-11-22T13:52:25.418Z,65.50
2018-11-22T13:54:52.846Z,73.80
2018-11-22T13:57:20.283Z,71.13
2018-11-22T13:59:47.685Z,78.13
2018-11-22T14:02:15.121Z,72.90
2018-11-22T14:04:42.534Z,68.77
2018-11-22T14:07:10.072Z,62.93
2018-11-22T14:09:37.518Z,66.83
2018-11-22T14:12:04.972Z,63.87
2018-11-22T14:14:32.374Z,65.67
2018-11-22T14:16:59.801Z,61.47
2018-11-22T14:19:27.225Z,67.03
2018-11-22T14:21:54.676Z,62.83
2018-11-22T14:24:22.091Z,65.10
2018-11-22T14:26:49.503Z,66.63
2018-11-22T14:29:16.930Z,68.33
2018-11-22T14:31:44.343Z,66.40
2018-11-22T14:34:11.755Z,66.43
2018-11-22T14:36:39.170Z,64.07
2018-11-22T14:39:06.599Z,63.23
2018-11-22T14:41:34.000Z,65.73
2018-11-22T14:44:01.420Z,59.30
2018-11-22T14:46:28.852Z,62.33
2018-11-22T14:48:56.287Z,58.03
2018-11-22T14:51:23.699Z,62.40
2018-11-22T14:53:51.132Z,61.50
2018-11-22T14:56:18.533Z,60.13
2018-11-22T14:58:46.851Z,62.70
2018-11-22T15:01:14.260Z,60.07
2018-11-22T15:03:41.696Z,61.90
2018-11-22T15:06:12.054Z,64.27
2018-11-22T15:08:39.496Z,58.33
2018-11-22T15:11:06.926Z,64.70
2018-11-22T15:13:34.320Z,60.27
2018-11-22T15:16:01.781Z,65.17
2018-11-22T15:18:29.183Z,63.03
2018-11-22T15:21:01.057Z,65.23
2018-11-22T15:23:24.022Z,62.33
2018-11-22T15:25:51.434Z,64.60
2018-11-22T15:28:18.849Z,66.60
2018-11-22T15:30:46.264Z,64.27
2018-11-22T15:33:13.690Z,61.07
2018-11-22T15:35:41.131Z,71.07
2018-11-22T15:38:08.538Z,64.53
2018-11-22T15:40:35.968Z,71.50
2018-11-22T15:43:03.376Z,64.20
2018-11-22T15:45:35.174Z,67.77
2018-11-22T15:47:58.208Z,65.90
2018-11-22T15:50:25.620Z,63.10
2018-11-22T15:52:53.018Z,68.03
2018-11-22T15:55:21.048Z,64.37
2018-11-22T15:57:47.875Z,73.93
2018-11-22T16:00:15.342Z,66.97
2018-11-22T16:02:42.770Z,70.57
2018-11-22T16:05:10.196Z,68.30
2018-11-22T16:07:37.620Z,70.13
2018-11-22T16:10:05.136Z,72.13
2018-11-22T16:12:32.581Z,69.70
2018-11-22T16:14:59.994Z,70.17
2018-11-22T16:17:27.397Z,71.60
2018-11-22T16:19:54.831Z,70.07
2018-11-22T16:22:22.240Z,68.77
2018-11-22T16:24:49.664Z,71.07
2018-11-22T16:27:17.070Z,69.93
2018-11-22T16:29:44.506Z,66.23
2018-11-22T16:32:11.919Z,62.03
2018-11-22T16:34:39.353Z,64.77
2018-11-22T16:37:06.789Z,69.07
2018-11-22T16:39:34.194Z,68.20
2018-11-22T16:42:01.630Z,70.83
2018-11-22T16:44:29.071Z,68.63
2018-11-22T16:46:56.509Z,70.27
2018-11-22T16:49:23.913Z,66.67
2018-11-22T16:51:51.359Z,66.37
2018-11-22T16:54:18.763Z,65.70
2018-11-22T16:56:46.212Z,65.83
2018-11-22T16:59:13.615Z,59.40
2018-11-22T17:01:41.119Z,70.17
2018-11-22T17:04:08.529Z,65.87
2018-11-22T17:06:35.976Z,61.57
2018-11-22T17:09:03.397Z,58.87
2018-11-22T17:11:33.297Z,63.30
2018-11-22T17:13:58.256Z,66.07
2018-11-22T17:16:25.702Z,61.60
2018-11-22T17:18:53.145Z,65.23
2018-11-22T17:21:20.547Z,63.40
2018-11-22T17:23:47.977Z,60.20
2018-11-22T17:26:15.388Z,59.77
2018-11-22T17:28:42.812Z,65.53
2018-11-22T17:31:10.245Z,58.97
2018-11-22T17:33:37.673Z,62.53
2018-11-22T17:36:05.095Z,57.03
2018-11-22T17:38:32.529Z,57.53
2018-11-22T17:40:59.923Z,63.20
2018-11-22T17:43:27.438Z,54.37
2018-11-22T17:45:54.867Z,61.83
2018-11-22T17:48:22.311Z,64.03
2018-11-22T17:50:49.710Z,71.40
2018-11-22T17:53:17.145Z,81.40
2018-11-22T17:55:44.592Z,64.23
2018-11-22T17:58:12.028Z,62.50
2018-11-22T18:00:39.431Z,58.43
2018-11-22T18:03:06.909Z,95.23
2018-11-22T18:05:34.325Z,77.00
2018-11-22T18:08:01.840Z,75.50
2018-11-22T18:10:29.278Z,82.77
2018-11-22T18:12:56.708Z,81.43
2018-11-22T18:15:24.162Z,78.63
2018-11-22T18:17:51.593Z,80.53
2018-11-22T18:20:19.037Z,74.17
2018-11-22T18:22:46.462Z,73.27
2018-11-22T18:25:13.889Z,72.67
2018-11-22T18:27:41.324Z,99.93
2018-11-22T18:30:08.739Z,89.60
2018-11-22T18:32:36.182Z,78.80
2018-11-22T18:35:03.576Z,84.00
2018-11-22T18:37:31.035Z,68.07
2018-11-22T18:39:58.428Z,68.60
2018-11-22T18:42:25.829Z,70.30
2018-11-22T18:44:53.337Z,73.07
2018-11-22T18:47:22.909Z,76.83
2018-11-22T18:49:50.347Z,70.87
2018-11-22T18:52:17.799Z,69.77
2018-11-22T18:54:45.231Z,71.80
2018-11-22T18:57:12.640Z,75.53
2018-11-22T18:59:40.124Z,66.53
2018-11-22T19:02:08.109Z,75.87
2018-11-22T19:04:34.973Z,74.13
2018-11-22T19:07:02.394Z,71.40
2018-11-22T19:09:29.797Z,79.33
2018-11-22T19:11:57.271Z,81.90
2018-11-22T19:14:24.687Z,67.80
2018-11-22T19:16:52.188Z,77.27
2018-11-22T19:19:19.591Z,80.63
2018-11-22T19:21:47.040Z,75.93
2018-11-22T19:24:14.467Z,65.47
2018-11-22T19:26:41.917Z,75.23
2018-11-22T19:29:09.364Z,84.50
2018-11-22T19:31:36.782Z,73.10
2018-11-22T19:34:04.243Z,73.13
2018-11-22T19:36:31.707Z,82.57
2018-11-22T19:38:59.175Z,82.27
2018-11-22T19:41:26.627Z,88.43
2018-11-22T19:43:54.050Z,89.37
2018-11-22T19:46:21.491Z,88.97
2018-11-22T19:48:48.978Z,87.33
2018-11-22T19:51:16.421Z,84.67
2018-11-22T19:53:43.829Z,83.13
2018-11-22T19:56:11.254Z,82.33
2018-11-22T19:58:38.697Z,78.33
2018-11-22T20:01:07.734Z,93.00
2018-11-22T20:03:33.552Z,99.70
2018-11-22T20:06:01.038Z,86.70
2018-11-22T20:08:28.430Z,83.37
2018-11-22T20:10:55.871Z,85.80
2018-11-22T20:13:23.275Z,85.73
2018-11-22T20:15:50.988Z,96.33
2018-11-22T20:18:18.185Z,83.23
2018-11-22T20:20:49.556Z,91.97
2018-11-22T20:23:13.031Z,86.73
2018-11-22T20:25:40.453Z,82.23
2018-11-22T20:28:07.880Z,91.90
2018-11-22T20:30:35.306Z,93.20
2018-11-22T20:33:02.716Z,78.03
2018-11-22T20:35:30.158Z,85.77
2018-11-22T20:37:57.611Z,83.37
2018-11-22T20:40:25.060Z,79.97
2018-11-22T20:42:52.595Z,72.43
2018-11-22T20:45:20.031Z,74.10
2018-11-22T20:47:47.447Z,76.37
2018-11-22T20:50:14.861Z,74.37
2018-11-22T20:52:42.278Z,79.17
2018-11-22T20:55:09.689Z,76.97
2018-11-22T20:57:37.132Z,76.87
2018-11-22T21:00:04.553Z,84.80
2018-11-22T21:02:31.957Z,84.80
2018-11-22T21:04:59.397Z,89.70
2018-11-22T21:07:26.838Z,89.27
2018-11-22T21:09:54.350Z,81.43
2018-11-22T21:12:21.722Z,80.90
2018-11-22T21:14:49.193Z,85.67
2018-11-22T21:17:16.593Z,74.20
2018-11-22T21:19:44.014Z,79.70
2018-11-22T21:22:11.484Z,79.73
2018-11-22T21:24:38.911Z,69.10
2018-11-22T21:27:06.278Z,81.27
2018-11-22T21:29:33.711Z,75.60
2018-11-22T21:32:01.201Z,75.10
2018-11-22T21:34:28.602Z,96.33
2018-11-22T21:36:56.031Z,86.77
2018-11-22T21:39:23.448Z,88.90
2018-11-22T21:41:50.899Z,78.17
2018-11-22T21:44:18.303Z,73.33
2018-11-22T21:46:45.728Z,91.80
2018-11-22T21:49:13.112Z,84.20
2018-11-22T21:51:40.533Z,79.93
2018-11-22T21:54:07.930Z,91.57
2018-11-22T21:56:35.377Z,81.77
2018-11-22T21:59:02.874Z,77.57
2018-11-22T22:01:30.235Z,84.97
2018-11-22T22:03:57.722Z,76.63
2018-11-22T22:06:25.127Z,73.47
2018-11-22T22:08:52.563Z,94.83
2018-11-22T22:11:19.971Z,87.77
2018-11-22T22:13:47.406Z,80.97
2018-11-22T22:16:14.804Z,83.23
2018-11-22T22:18:42.241Z,66.33
2018-11-22T22:21:09.660Z,76.60
2018-11-22T22:23:37.064Z,79.60
2018-11-22T22:26:04.499Z,64.20
2018-11-22T22:28:31.940Z,62.00
2018-11-22T22:30:59.369Z,64.37
2018-11-22T22:33:26.801Z,83.20
2018-11-22T22:35:54.215Z,78.27
2018-11-22T22:38:21.656Z,80.13
2018-11-22T22:40:49.068Z,73.43
2018-11-22T22:43:16.551Z,81.97
2018-11-22T22:45:43.972Z,74.40
2018-11-22T22:48:11.385Z,70.60
2018-11-22T22:50:38.828Z,76.63
2018-11-22T22:53:06.248Z,80.97
2018-11-22T22:55:33.676Z,61.87
2018-11-22T22:58:01.083Z,62.53
2018-11-22T23:00:28.525Z,63.53
2018-11-22T23:02:55.920Z,64.27
2018-11-22T23:05:23.370Z,62.57
2018-11-22T23:07:50.779Z,67.77
2018-11-22T23:10:18.204Z,80.40
2018-11-22T23:12:45.635Z,72.57
2018-11-22T23:15:13.034Z,72.27
2018-11-22T23:17:40.482Z,76.00
2018-11-22T23:20:07.882Z,69.47
2018-11-22T23:22:35.296Z,81.13
2018-11-22T23:25:02.753Z,68.60
2018-11-22T23:27:30.174Z,75.47
2018-11-22T23:29:57.600Z,64.30
2018-11-22T23:32:25.022Z,66.13
2018-11-22T23:34:52.465Z,61.90
2018-11-22T23:37:19.865Z,67.20
2018-11-22T23:39:47.285Z,63.53
2018-11-22T23:42:14.710Z,60.63
2018-11-22T23:44:42.150Z,74.50
2018-11-22T23:47:09.552Z,68.13
2018-11-22T23:49:37.005Z,69.10
2018-11-22T23:52:04.383Z,72.17
2018-11-22T23:54:31.801Z,80.57
2018-11-22T23:56:59.230Z,75.33
2018-11-22T23:59:26.640Z,81.27
